Terminal Aerodrome Forecast
Issued by NWS

Home | Current Version | Previous Version | Text Only | Print | Product List | Glossary On
Versions: 1 2 3 4 5 6 7 8 9 10 11 12 13 14 15 16 17 18 19 20 21 22 23 24 25 26 27
000
FTUS41 KPHI 270500 RRA
TAFMIV
TAF
KMIV 270556Z 2706/2806 36015G23KT 6SM -SN OVC020
      TEMPO 2710/2714 2SM -SN BKN020 OVC030
     FM271400 34013G20KT 6SM -SN OVC020
     FM271800 33016G23KT P6SM SCT020 BKN080
     FM280500 31013KT P6SM SCT025=

USA.gov is the U.S. government's official web portal to all federal, state and local government web resources and services.